Athens Ben Epps Airport Athens US
ICAO: KAHN
IATA: AHN
Category: Medium
Scheduled Services: Yes

Elevation: 808 ft
TransAlt. 18000 ft.

Airport Communications:
ATLANTA APP/DEP:127.5
ASOS:132.875
ATLANTA CNTR:127.5
CTAF:126.3
GND:121.8
MACON RDO:109.6
TWR:126.3
UNICOM:122.95

KAHN Zoom In..

Runways:

(A) RW 02 length 3955 ft width 100 ft
---- / hdg 24

(B) RW 09 length 5522 ft width 100 ft
---- / hdg 91

(C) RW 20 length 3955 ft width 100 ft
---- / hdg 204

(D) RW 27 length 5522 ft width 100 ft
ILS 110.95 / hdg 271

Location; KAHN
Day. 20 / Time. 19.51 Zulu
* Altimeter: 29.99
* Temperature: 31° c. 87.8°f.
* Wind from: 060° Speed 05 kn.
Dewpoint: 20° c.
Visibility: 10 Statute Miles.
Clouds: Few 4200 ft.

KAHN 201951Z 06005KT 10SM FEW042 31/20 A2999 RMK AO2 SLP146 T03110200


Wind From 060°
Speed 05 kn.

 
 
jpsmedia.com for Web Design worldairports.se 2018   terms of use